Osawatomie, Kansas
Current Conditions -  °F | °C
As of 3:53 AM on Sunday 26 Oct 2014 (Local Time) from KIXD Reporting Station
Clear Clear  
Wind Chill: 61°   Ceiling: Unl
Heat Index: 61°   Visibility: 10mi
Dew Point: 56°   Wind: 9mph
Humidity: 83%   Direction: 100°E
Pressure: 29.95"   Gusts: NA
Location:  38.5°N, 94.95°W
Report Text: KIXD 260853Z AUTO 10008KT 10SM CLR 16/13 A2995 RMK AO2 SLP132 T01610133 58014
Loading
Personal Weather Stations






























Interactive Weather Map
Tropical Storm Tracking
New forecast layout! Learn more

10-Day Weather Forecast

Advertisements
Track Severe Weather on mobile